Flight Track Log - Related Links

Times and Time Zones

All times are in EST time to prevent confusion due to time zone crossing. See the EJA951 flight status page for this flight to view local times or setup timezone preferences in your user account.


Time Position Orientation Groundspeed Altitude Reporting Facility
EST Latitude Longitude Course Direction KTS MPH feet Rate Location/Type
Wed 08:52:08 AM 41.2786 -95.8661 128° Southeast 198 228 2,900  Level Minneapolis Center
Wed 08:53:03 AM 41.2408 -95.8011 128° Southeast 268 308 6,800 4,393 Climbing Minneapolis Center
Wed 08:53:04 AM 41.2392 -95.7908 102° East 256 295 7,000 4,328 Climbing Minneapolis Center
Wed 08:54:04 AM 41.2350 -95.6853 93° East 303 349 11,200 4,065 Climbing Minneapolis Center
Wed 08:54:06 AM 41.2322 -95.6839 159° South 282 325 11,200 2,250 Level Minneapolis Center
Wed 08:55:08 AM 41.2222 -95.5519 96° East 350 403 13,600 2,146 Climbing Minneapolis Center
Wed 08:56:09 AM 41.2183 -95.4008 92° East 402 463 15,600 1,756 Climbing Minneapolis Center
Wed 08:57:11 AM 41.2217 -95.2492 88° East 410 472 17,200 1,355 Climbing Minneapolis Center
Wed 08:58:13 AM 41.2233 -95.0928 89° East 417 480 18,400 1,366 Climbing Minneapolis Center
Wed 08:59:14 AM 41.2247 -94.9364 89° East 421 484 20,000 1,707 Climbing Minneapolis Center
Wed 09:00:16 AM 41.2272 -94.7447 89° East 427 491 21,900 1,694 Climbing Minneapolis Center
Wed 09:01:18 AM 41.2289 -94.5814 89° East 434 499 23,500 1,548 Climbing Minneapolis Center
Wed 09:02:20 AM 41.2269 -94.4131 91° East 449 517 25,100 1,561 Climbing Minneapolis Center
Wed 09:03:21 AM 41.2275 -94.2433 90° East 457 526 26,700 1,561 Climbing Minneapolis Center
Wed 09:04:23 AM 41.2267 -94.0753 90° East 464 534 28,300 1,548 Climbing Minneapolis Center
Wed 09:05:25 AM 41.2278 -93.8986 89° East 473 544 29,900 1,268 Climbing Minneapolis Center
Wed 09:06:26 AM 41.2294 -93.7172 89° East 485 558 30,900 537 Climbing Minneapolis Center
Wed 09:07:28 AM 41.2308 -93.4936 89° East 500 575 31,000 48 Climbing Minneapolis Center
Wed 09:08:30 AM 41.2306 -93.3014 90° East 514 592 31,000  Level Minneapolis Center
Wed 09:09:31 AM 41.2300 -93.1111 90° East 517 595 31,000  Level Minneapolis Center
Wed 09:10:33 AM 41.2292 -92.9219 90° East 515 593 31,000  Level Minneapolis Center
Wed 09:11:27 AM 41.2281 -92.7697 91° East 513 590 31,000  Level Chicago Center
Wed 09:12:29 AM 41.2253 -92.5422 91° East 513 590 31,000  Level Chicago Center
Wed 09:13:32 AM 41.2247 -92.3536 90° East 511 588 31,000  Level Chicago Center
Wed 09:14:33 AM 41.2219 -92.1650 91° East 509 586 31,000  Level Chicago Center
Wed 09:15:36 AM 41.2194 -91.9778 91° East 508 585 31,000  Level Chicago Center
Wed 09:16:38 AM 41.2156 -91.7900 92° East 511 588 31,000  Level Chicago Center
Wed 09:17:40 AM 41.2131 -91.5756 91° East 506 582 31,000  Level Chicago Center
Wed 09:18:42 AM 41.2086 -91.3872 92° East 509 586 31,000 -145 Level Chicago Center
Wed 09:19:44 AM 41.2056 -91.1975 91° East 513 590 30,700 -1,403 Descending Chicago Center
Wed 09:20:46 AM 41.2006 -91.0081 92° East 512 589 28,100 -2,565 Descending Chicago Center
Wed 09:21:48 AM 41.1958 -90.8236 92° East 504 580 25,400 -2,323 Descending Chicago Center
Wed 09:22:50 AM 41.1919 -90.6456 92° East 488 562 23,300 -1,694 Descending Chicago Center
Wed 09:23:52 AM 41.1867 -90.4319 92° East 483 556 21,900 -1,355 Descending Chicago Center
Wed 09:24:54 AM 41.1811 -90.2586 92° East 475 547 20,500 -1,355 Descending Chicago Center
Wed 09:25:56 AM 41.1758 -90.0858 92° East 468 539 19,100 -1,258 Descending Chicago Center
Wed 09:26:58 AM 41.1697 -89.9142 93° East 465 535 17,900 -1,728 Descending Chicago Center
Wed 09:28:01 AM 41.1661 -89.7492 92° East 448 516 15,500 -2,352 Descending Chicago Center
Wed 09:29:03 AM 41.1611 -89.5942 92° East 421 484 13,000 -2,177 Descending Chicago Center
Wed 09:30:05 AM 41.1694 -89.4417 86° East 414 476 11,000 -968 Descending Chicago Center
Wed 09:31:07 AM 41.1825 -89.2625 84° East 409 471 11,000 -97 Level Chicago Center
Wed 09:32:09 AM 41.1878 -89.1378 87° East 350 403 10,800 -629 Descending Chicago Center
Wed 09:33:11 AM 41.2022 -89.0286 80° East 320 368 9,700 -871 Descending Chicago Center
Wed 09:34:13 AM 41.2403 -88.9372 61° Northeast 296 341 9,000 -339 Descending Chicago Center
Wed 09:35:15 AM 41.2772 -88.8453 62° Northeast 286 329 9,000  Level Chicago Center
Wed 09:36:17 AM 41.3139 -88.7519 62° Northeast 285 328 9,000 -145 Level Chicago Center
Wed 09:37:19 AM 41.3597 -88.6383 62° Northeast 289 333 8,700 -871 Descending Chicago Center
Wed 09:38:21 AM 41.3975 -88.5428 62° Northeast 291 335 7,200 -1,296 Descending Chicago Center
Wed 09:39:24 AM 41.4344 -88.4486 62° Northeast 288 331 6,000 -576 Descending Chicago Center
Wed 09:40:26 AM 41.4758 -88.3628 57° Northeast 283 326 6,000 -290 Level Chicago Center
Wed 09:41:28 AM 41.5219 -88.2858 51° Northeast 282 325 5,400 -484 Descending Chicago Center
Wed 09:42:30 AM 41.5353 -88.1803 80° East 283 326 5,000 -194 Descending Chicago Center
Wed 09:43:32 AM 41.5494 -88.0767 80° East 282 325 5,000  Level Chicago Center
Wed 09:44:34 AM 41.5639 -87.9722 79° East 281 323 5,000  Level Chicago Center
Wed 09:45:36 AM 41.5781 -87.8464 81° East 283 326 5,000 -484 Level Chicago Center
Wed 09:46:38 AM 41.5808 -87.7564 88° East 257 296 4,000 -823 Descending Chicago Center
Wed 09:47:40 AM 41.5850 -87.6717 86° East 243 280 3,300 -484 Descending Chicago Center
Wed 09:48:42 AM 41.6078 -87.6114 63° Northeast 216 249 3,000 -145 Descending Chicago Center
Wed 09:49:44 AM 41.6506 -87.5769 31° Northeast 203 234 3,000 -240 Level Chicago Center
Wed 09:50:47 AM 41.6900 -87.6172 323° Northwest 164 189 2,500 -240 Descending Chicago Center
Wed 09:51:49 AM 41.7169 -87.6575 312° West 152 175 2,500 -339 Level Chicago Center
Wed 09:52:51 AM 41.7497 -87.6750 338° Northwest 157 181 1,800 -387 Descending Chicago Center
Wed 09:53:53 AM 41.7858 -87.6583 19° North 160 184 1,700 -48 Descending Chicago Center
Wed 09:54:55 AM 41.8125 -87.6900 318° Northwest 141 162 1,700 -194 Level Chicago Center
Wed 09:55:57 AM 41.8039 -87.7339 255° West 137 158 1,300 -387 Descending Chicago Center

Login

Don't have an account? Register now (free) for customized features, flight alerts, and more!